Erie International Tom Ridge Field
KERI : now visible

Airfield :











YOU CAN JOIN US ON...

 
LOGIN :

Register | Disclaimer

   EN    FR    IT 

 









Legend :    VFR   Marginal VFR   IFR   Intensive IFR   Very Intensive IFR
Visi :
Ceiling :
>= 8 km
>= 3000ft
5 to 8 km
1000 to 3000 ft
1500m to 5 km
500 to 1000 ft
800 to 1500m
200 to 500 ft
< 800m
< 200 ft
Symbols :   Thunderstorms  Fog  Heavy snow  Heavy precipitations  Wind > 20 kt






- Airport Elevation : 733 ft
- IATA code : ERI


KERI - Erie International Tom Ridge Field

CURRENT METAR :
  • 260451Z AUTO 03012G23KT 8SM -RA OVC004 11/09 A2970 RMK AO2 PK WND 03026/0352 SLP057 P0002 T01110089 401830111

EXPIRED METARs :
  • 260351Z AUTO 03015G21KT 8SM -RA OVC003 12/10 A2971 RMK AO2 RAB25 SLP059 P0000 T01170100
  • 260251Z 03013G18KT 10SM OVC004 13/11 A2971 RMK AO2 SLP060 60000 T01330111 53012

TAF KERI
Valid from the 26 at 01:00 until the 27 at 00:00 UTC


260115Z 2601/2624 03012G20KT P6SM VCSH BKN005
FM260400 35012G20KT 4SM -RA BR OVC006
FM261000 36013G25KT 3SM -RA BR OVC007
FM262300 35013G20KT P6SM VCSH OVC015
KZOB FIR / North America



MET'MAP, your aeronautical weather chart ! - Copyright ORBIFLY December 2007 - Disclaimer

ORBIFLY MET'MAP TEAM :

Programming & Development : Alexandra Zaïnal
Concept & original design : Baudouin d'Aumeries
Assistance for programming : Marc-Olivier Méhu
Technical & hardware support : Manuel Goepfert

Contact : metmap@orbifly.com




SOURCES & CREDITS :

   NOAA       Earth
Advisory